Time;durP1;ratioP1;P1;durP2;ratioP2;P2;SDS_P1;SDS_P2;PMS_P1;PMS_P2;Temp;Humidity;BMP_temperature;BMP_pressure;BME280_temperature;BME280_humidity;BME280_pressure;Samples;Min_cycle;Max_cycle;Signal;HPM_P1;HPM_P2
2023/05/29 00:01:37;;;;;;;12.50;3.50;;;;;;;;;;4802298;29;20523;-81
2023/05/29 00:04:40;;;;;;;21.98;4.20;;;;;;;;;;4806367;29;20049;-81
2023/05/29 00:07:31;;;;;;;19.50;3.70;;;;;;;;;;4822628;29;20056;-81
2023/05/29 00:10:06;;;;;;;17.55;4.28;;;;;;;;;;4792115;29;20479;-81
2023/05/29 00:12:42;;;;;;;14.57;3.50;;;;;;;;;;4806197;29;20468;-81
2023/05/29 00:15:12;;;;;;;17.02;3.70;;;;;;;;;;4797546;29;20178;-81
2023/05/29 00:18:08;;;;;;;;;;;;;;;;;;;;;
2023/05/29 00:20:46;;;;;;;14.55;3.47;;;;;;;;;;4852120;29;20060;-81
2023/05/29 00:23:12;;;;;;;11.90;3.45;;;;;;;;;;4863564;29;20510;-81
2023/05/29 00:25:49;;;;;;;19.50;4.80;;;;;;;;;;4859319;29;20064;-81
2023/05/29 00:28:18;;;;;;;17.05;3.42;;;;;;;;;;4861844;29;20144;-81
2023/05/29 00:31:32;;;;;;;17.50;4.32;;;;;;;;;;4844106;29;20128;-81
2023/05/29 00:34:39;;;;;;;17.92;3.38;;;;;;;;;;4799972;29;20540;-81
2023/05/29 00:37:52;;;;;;;17.73;3.58;;;;;;;;;;4721786;30;20064;-81
2023/05/29 00:40:35;;;;;;;12.50;3.15;;;;;;;;;;4821947;29;20056;-81
2023/05/29 00:43:22;;;;;;;17.35;3.53;;;;;;;;;;4826487;29;20045;-81
2023/05/29 00:46:12;;;;;;;17.45;4.05;;;;;;;;;;4805387;29;20062;-81
2023/05/29 00:48:44;;;;;;;16.23;3.30;;;;;;;;;;4798704;29;20110;-81
2023/05/29 00:51:25;;;;;;;17.20;3.70;;;;;;;;;;4779157;29;20047;-81
2023/05/29 00:54:06;;;;;;;;;;;;;;;;;;;;;
2023/05/29 00:56:39;;;;;;;17.75;3.85;;;;;;;;;;4775797;29;20076;-81
2023/05/29 00:59:21;;;;;;;;;;;;;;;;;;4788974;29;20166;-81
2023/05/29 01:02:08;;;;;;;18.30;3.65;;;;;;;;;;4798992;29;20031;-81
2023/05/29 01:05:09;;;;;;;12.38;3.15;;;;;;;;;;4781821;29;20051;-81
2023/05/29 01:07:38;;;;;;;10.68;3.10;;;;;;;;;;4784804;29;20146;-81
2023/05/29 01:10:45;;;;;;;14.98;3.80;;;;;;;;;;4747086;30;20103;-81
2023/05/29 01:13:56;;;;;;;;;;;;;;;;;;;;;
2023/05/29 01:20:09;;;;;;;13.30;3.33;;;;;;;;;;4809121;29;20197;-81
2023/05/29 01:22:56;;;;;;;17.63;3.17;;;;;;;;;;4823662;29;20522;-81
2023/05/29 01:26:02;;;;;;;14.48;2.97;;;;;;;;;;4833239;29;20121;-81
2023/05/29 01:29:02;;;;;;;19.17;3.40;;;;;;;;;;4799017;29;20057;-81
2023/05/29 01:31:35;;;;;;;13.73;3.28;;;;;;;;;;4793826;29;20137;-81
2023/05/29 01:34:18;;;;;;;15.52;3.80;;;;;;;;;;4805542;29;20152;-81
2023/05/29 01:36:57;;;;;;;15.27;3.70;;;;;;;;;;4791913;29;20102;-80
2023/05/29 01:39:45;;;;;;;18.05;3.53;;;;;;;;;;4820898;29;20556;-81
2023/05/29 01:48:47;;;;;;;16.15;4.05;;;;;;;;;;4842369;29;20045;-81
2023/05/29 01:51:13;;;;;;;18.63;3.47;;;;;;;;;;4846518;29;20511;-80
2023/05/29 01:57:02;;;;;;;13.38;3.55;;;;;;;;;;4828970;29;20045;-81
2023/05/29 02:03:24;;;;;;;12.18;2.92;;;;;;;;;;5399678;23;20471;-81
2023/05/29 02:12:41;;;;;;;18.30;3.95;;;;;;;;;;4883350;28;20049;-80
2023/05/29 02:15:10;;;;;;;15.07;3.67;;;;;;;;;;4907863;28;20043;-81
2023/05/29 02:18:07;;;;;;;18.83;3.47;;;;;;;;;;4919223;28;20508;-81
2023/05/29 02:21:02;;;;;;;18.65;3.67;;;;;;;;;;4873972;29;20047;-81
2023/05/29 02:23:47;;;;;;;;;;;;;;;;;;;;;
2023/05/29 02:26:41;;;;;;;;;;;;;;;;;;;;;
2023/05/29 02:29:45;;;;;;;;;;;;;;;;;;;;;
2023/05/29 02:32:30;;;;;;;;;;;;;;;;;;;;;
2023/05/29 02:35:48;;;;;;;;;;;;;;;;;;;;;
2023/05/29 02:41:30;;;;;;;14.73;3.67;;;;;;;;;;4806671;29;20046;-80
2023/05/29 02:44:04;;;;;;;18.25;3.28;;;;;;;;;;4791360;29;20492;-80
2023/05/29 02:46:31;;;;;;;18.50;4.22;;;;;;;;;;4780564;29;20275;-81
2023/05/29 03:03:06;;;;;;;12.75;3.13;;;;;;;;;;5194614;23;20883;-81
2023/05/29 03:05:52;;;;;;;15.85;3.60;;;;;;;;;;4892312;29;20084;-81
2023/05/29 03:10:59;;;;;;;15.15;3.58;;;;;;;;;;5762611;23;20087;-81
2023/05/29 03:16:35;;;;;;;19.58;3.38;;;;;;;;;;4879218;29;20123;-81
2023/05/29 03:20:07;;;;;;;;;;;;;;;;;;;;;
2023/05/29 03:25:46;;;;;;;11.45;3.28;;;;;;;;;;5725291;23;20412;-81
2023/05/29 03:29:06;;;;;;;13.23;3.58;;;;;;;;;;4865713;29;20090;-81
2023/05/29 03:44:22;;;;;;;17.25;3.17;;;;;;;;;;4929388;28;20507;-81
2023/05/29 03:47:16;;;;;;;15.60;3.05;;;;;;;;;;4919359;28;20130;-81
2023/05/29 03:50:17;;;;;;;11.18;3.45;;;;;;;;;;4895868;29;20105;-81
2023/05/29 03:53:22;;;;;;;14.82;3.55;;;;;;;;;;4841632;29;20089;-81
2023/05/29 04:07:45;;;;;;;15.60;3.80;;;;;;;;;;5385749;23;20976;-81
2023/05/29 04:10:16;;;;;;;13.60;3.65;;;;;;;;;;4881961;28;20055;-81
2023/05/29 04:12:50;;;;;;;10.88;3.55;;;;;;;;;;4878060;29;20051;-81
2023/05/29 04:15:24;;;;;;;12.13;2.97;;;;;;;;;;4903667;29;20716;-81
2023/05/29 04:26:48;;;;;;;15.93;3.20;;;;;;;;;;5249597;23;20153;-81
2023/05/29 04:29:18;;;;;;;16.80;3.63;;;;;;;;;;4882499;29;20046;-81
2023/05/29 04:32:32;;;;;;;14.05;3.33;;;;;;;;;;4844976;29;20052;-81
2023/05/29 04:35:10;;;;;;;13.52;3.30;;;;;;;;;;4842876;29;20044;-81
2023/05/29 04:38:22;;;;;;;15.23;3.10;;;;;;;;;;4840874;29;20526;-81
2023/05/29 04:41:02;;;;;;;15.23;3.35;;;;;;;;;;4767510;29;20051;-81
2023/05/29 04:43:40;;;;;;;13.88;3.72;;;;;;;;;;4756948;29;20156;-81
2023/05/29 04:46:12;;;;;;;14.00;3.53;;;;;;;;;;4768509;29;20538;-81
2023/05/29 04:48:53;;;;;;;14.75;3.42;;;;;;;;;;4776322;29;20564;-83
2023/05/29 04:51:31;;;;;;;10.43;3.70;;;;;;;;;;4834883;29;20554;-83
2023/05/29 04:53:57;;;;;;;14.13;3.17;;;;;;;;;;4847346;29;20084;-83
2023/05/29 04:56:36;;;;;;;13.35;3.63;;;;;;;;;;4845883;29;20049;-83
2023/05/29 04:59:18;;;;;;;;;;;;;;;;;;4817915;29;20056;-83
2023/05/29 05:04:50;;;;;;;18.67;3.63;;;;;;;;;;4847147;29;20123;-83
2023/05/29 05:10:17;;;;;;;12.43;3.13;;;;;;;;;;4869449;29;20115;-83
2023/05/29 05:12:46;;;;;;;15.43;3.40;;;;;;;;;;4858203;29;20044;-83
2023/05/29 05:15:15;;;;;;;15.30;3.78;;;;;;;;;;4869586;29;20072;-83
2023/05/29 05:17:50;;;;;;;11.32;3.67;;;;;;;;;;4871631;29;20078;-82
2023/05/29 05:20:35;;;;;;;13.13;3.10;;;;;;;;;;4876145;29;20036;-83
2023/05/29 05:23:02;;;;;;;14.85;3.15;;;;;;;;;;4870511;29;20056;-83
2023/05/29 05:25:33;;;;;;;10.68;3.47;;;;;;;;;;4882993;29;20049;-83
2023/05/29 05:28:04;;;;;;;13.63;3.10;;;;;;;;;;4887936;29;20047;-83
2023/05/29 05:30:36;;;;;;;16.02;3.63;;;;;;;;;;4861689;29;20144;-83
2023/05/29 05:33:07;;;;;;;16.23;3.95;;;;;;;;;;4868817;29;20913;-83
2023/05/29 05:35:34;;;;;;;9.20;3.10;;;;;;;;;;4858060;29;20489;-83
2023/05/29 05:38:11;;;;;;;17.23;3.67;;;;;;;;;;4853793;29;20395;-82
2023/05/29 05:40:46;;;;;;;14.23;3.70;;;;;;;;;;4861520;29;20044;-82
2023/05/29 05:43:12;;;;;;;14.23;3.47;;;;;;;;;;4866844;29;20087;-82
2023/05/29 05:45:41;;;;;;;9.40;3.70;;;;;;;;;;4872138;29;20086;-82
2023/05/29 05:48:17;;;;;;;13.02;3.22;;;;;;;;;;4850532;29;20091;-82
2023/05/29 05:51:27;;;;;;;;;;;;;;;;;;;;;
2023/05/29 05:54:04;;;;;;;11.45;3.08;;;;;;;;;;4849612;29;20459;-82
2023/05/29 05:57:33;;;;;;;;;;;;;;;;;;;;;
2023/05/29 06:07:06;;;;;;;15.40;3.90;;;;;;;;;;4858815;29;20067;-82
2023/05/29 06:10:10;;;;;;;12.15;3.35;;;;;;;;;;4832460;29;20216;-83
2023/05/29 06:12:45;;;;;;;20.73;4.32;;;;;;;;;;4847967;29;20152;-82
2023/05/29 06:15:20;;;;;;;15.30;3.92;;;;;;;;;;4775668;29;20058;-83
2023/05/29 06:17:55;;;;;;;18.25;4.18;;;;;;;;;;4780610;29;20138;-82
2023/05/29 06:20:39;;;;;;;15.73;3.63;;;;;;;;;;4793205;29;20139;-82
2023/05/29 06:23:52;;;;;;;14.27;3.88;;;;;;;;;;4801476;29;20522;-82
2023/05/29 06:26:44;;;;;;;19.77;3.95;;;;;;;;;;4787713;29;20111;-83
2023/05/29 06:29:23;;;;;;;11.30;3.28;;;;;;;;;;4777336;29;20054;-83
2023/05/29 06:32:32;;;;;;;17.52;4.10;;;;;;;;;;4803472;29;20051;-83
2023/05/29 06:35:23;;;;;;;16.73;3.95;;;;;;;;;;4789791;29;20135;-82
2023/05/29 06:41:36;;;;;;;14.38;3.78;;;;;;;;;;4773420;29;20059;-83
2023/05/29 06:44:07;;;;;;;14.60;3.75;;;;;;;;;;4786266;29;20587;-83
2023/05/29 06:49:22;;;;;;;18.30;4.60;;;;;;;;;;6053878;23;20109;-82
2023/05/29 06:52:50;;;;;;;;;;;;;;;;;;;;;
2023/05/29 06:55:42;;;;;;;19.50;4.53;;;;;;;;;;4842063;29;20041;-82
2023/05/29 06:58:28;;;;;;;15.38;4.32;;;;;;;;;;4829804;29;20445;-82
2023/05/29 07:01:11;;;;;;;14.18;3.83;;;;;;;;;;4823612;29;20072;-82
2023/05/29 07:03:40;;;;;;;14.82;4.10;;;;;;;;;;4791513;29;20046;-82
2023/05/29 07:12:00;;;;;;;16.10;4.22;;;;;;;;;;4822944;29;20045;-82
2023/05/29 07:14:34;;;;;;;18.95;4.22;;;;;;;;;;4811052;29;20049;-82
2023/05/29 07:17:20;;;;;;;18.80;4.00;;;;;;;;;;4861880;29;20067;-82
2023/05/29 07:19:46;;;;;;;16.08;4.22;;;;;;;;;;4835412;29;20075;-82
2023/05/29 07:22:24;;;;;;;16.77;4.65;;;;;;;;;;4822135;29;20057;-82
2023/05/29 07:24:56;;;;;;;;;;;;;;;;;;4808089;29;20534;-81
2023/05/29 07:27:25;;;;;;;16.13;4.25;;;;;;;;;;4841328;29;19938;-82
2023/05/29 07:30:14;;;;;;;20.60;3.97;;;;;;;;;;4831267;29;20643;-81
2023/05/29 07:32:51;;;;;;;14.13;3.50;;;;;;;;;;4865882;29;20048;-81
2023/05/29 07:38:47;;;;;;;16.27;4.63;;;;;;;;;;4823807;29;20059;-81
2023/05/29 07:41:18;;;;;;;14.70;4.30;;;;;;;;;;4869805;29;20462;-81
2023/05/29 07:43:55;;;;;;;;;;;;;;;;;;;;;
2023/05/29 07:46:28;;;;;;;18.48;4.07;;;;;;;;;;4849796;29;20052;-81
2023/05/29 07:51:44;;;;;;;21.25;3.97;;;;;;;;;;5685221;23;20063;-82
2023/05/29 07:54:17;;;;;;;16.13;3.65;;;;;;;;;;4896742;29;20052;-81
2023/05/29 07:56:58;;;;;;;10.65;3.75;;;;;;;;;;4880015;29;20095;-81
2023/05/29 08:02:44;;;;;;;14.25;4.55;;;;;;;;;;4913193;29;19974;-81
2023/05/29 08:05:13;;;;;;;14.48;4.10;;;;;;;;;;4893780;29;20047;-81
2023/05/29 08:07:44;;;;;;;17.08;4.10;;;;;;;;;;4877467;29;20054;-81
2023/05/29 08:10:16;;;;;;;13.90;3.95;;;;;;;;;;4905582;29;20126;-82
2023/05/29 08:12:51;;;;;;;18.10;4.40;;;;;;;;;;4888610;29;20504;-82
2023/05/29 08:15:24;;;;;;;17.92;3.75;;;;;;;;;;4905221;29;20083;-81
2023/05/29 08:20:58;;;;;;;11.00;3.05;;;;;;;;;;4884560;29;20052;-81
2023/05/29 08:23:43;;;;;;;15.23;4.00;;;;;;;;;;4905951;29;20055;-82
2023/05/29 08:26:23;;;;;;;13.43;4.15;;;;;;;;;;4877309;29;20047;-81
2023/05/29 08:28:59;;;;;;;16.88;4.47;;;;;;;;;;4895916;29;20736;-82
2023/05/29 08:31:33;;;;;;;16.58;4.65;;;;;;;;;;4890788;29;20044;-82
2023/05/29 08:34:18;;;;;;;16.17;3.83;;;;;;;;;;4917006;29;20048;-82
2023/05/29 08:36:48;;;;;;;10.98;3.38;;;;;;;;;;4882710;29;20075;-81
2023/05/29 08:39:20;;;;;;;16.17;4.20;;;;;;;;;;4869252;29;20052;-81
2023/05/29 08:45:08;;;;;;;13.02;3.20;;;;;;;;;;4896176;29;20081;-81
2023/05/29 08:47:34;;;;;;;15.65;3.28;;;;;;;;;;4864850;29;20059;-81
2023/05/29 08:50:08;;;;;;;13.00;3.80;;;;;;;;;;4863495;29;20152;-82
2023/05/29 08:52:38;;;;;;;15.60;3.53;;;;;;;;;;4841390;29;20053;-81
2023/05/29 08:55:08;;;;;;;13.43;3.53;;;;;;;;;;4849712;29;20108;-81
2023/05/29 08:57:39;;;;;;;15.77;4.03;;;;;;;;;;4864074;29;20104;-81
2023/05/29 09:00:40;;;;;;;13.02;3.83;;;;;;;;;;4865202;29;20574;-81
2023/05/29 09:03:14;;;;;;;17.23;3.33;;;;;;;;;;4865093;29;20119;-81
2023/05/29 09:05:45;;;;;;;12.98;3.40;;;;;;;;;;4832129;29;20080;-81
2023/05/29 09:08:15;;;;;;;14.85;3.42;;;;;;;;;;4873724;29;20076;-81
2023/05/29 09:10:55;;;;;;;13.10;3.92;;;;;;;;;;4847442;29;20444;-81
2023/05/29 09:13:29;;;;;;;16.42;3.53;;;;;;;;;;4876353;29;20062;-81
2023/05/29 09:16:08;;;;;;;14.45;4.50;;;;;;;;;;4883723;29;20127;-81
2023/05/29 09:18:45;;;;;;;12.88;3.22;;;;;;;;;;4872377;29;20489;-81
2023/05/29 09:21:16;;;;;;;10.85;3.60;;;;;;;;;;4848619;29;20172;-81
2023/05/29 09:26:56;;;;;;;12.57;3.40;;;;;;;;;;4881769;29;20048;-82
2023/05/29 09:29:33;;;;;;;14.95;4.40;;;;;;;;;;4855572;29;21820;-82
2023/05/29 09:32:03;;;;;;;13.60;3.30;;;;;;;;;;4877531;29;20032;-82
2023/05/29 09:34:32;;;;;;;10.82;2.88;;;;;;;;;;4849103;29;20048;-82
2023/05/29 09:37:21;;;;;;;15.35;3.58;;;;;;;;;;4878064;29;20086;-82
2023/05/29 09:43:12;;;;;;;13.75;3.53;;;;;;;;;;4874712;29;20568;-82
2023/05/29 09:45:44;;;;;;;14.40;3.25;;;;;;;;;;4864208;29;20040;-85
2023/05/29 09:48:36;;;;;;;12.88;3.80;;;;;;;;;;4858321;29;20068;-82
2023/05/29 09:51:05;;;;;;;14.38;3.92;;;;;;;;;;4850878;29;20057;-82
2023/05/29 09:53:34;;;;;;;15.13;3.40;;;;;;;;;;4858331;29;20053;-82
2023/05/29 09:56:01;;;;;;;11.88;3.17;;;;;;;;;;4851280;29;20416;-81
2023/05/29 09:59:00;;;;;;;12.27;3.55;;;;;;;;;;4864432;29;20092;-82
2023/05/29 10:01:41;;;;;;;11.75;3.33;;;;;;;;;;4791292;29;20131;-82
2023/05/29 10:04:11;;;;;;;14.93;3.42;;;;;;;;;;4870107;29;20048;-82
2023/05/29 10:06:40;;;;;;;12.43;3.10;;;;;;;;;;4869425;29;20391;-82
2023/05/29 10:09:07;;;;;;;14.18;3.15;;;;;;;;;;4878373;29;20434;-84
2023/05/29 10:12:00;;;;;;;15.35;3.38;;;;;;;;;;4874761;29;20109;-82
2023/05/29 10:14:34;;;;;;;10.57;3.20;;;;;;;;;;4860990;29;20076;-82
2023/05/29 10:17:08;;;;;;;12.77;3.50;;;;;;;;;;4858911;29;20056;-83
2023/05/29 10:19:37;;;;;;;13.45;3.20;;;;;;;;;;4858628;29;20468;-82
2023/05/29 10:22:21;;;;;;;13.98;3.95;;;;;;;;;;4877024;29;20052;-82
2023/05/29 10:25:17;;;;;;;;;;;;;;;;;;;;;
2023/05/29 10:27:55;;;;;;;15.38;4.13;;;;;;;;;;4837849;29;20061;-87
2023/05/29 10:30:40;;;;;;;22.35;4.88;;;;;;;;;;4825183;29;20116;-87
2023/05/29 10:33:21;;;;;;;17.95;3.60;;;;;;;;;;4854493;29;20131;-88
2023/05/29 10:35:53;;;;;;;14.95;3.78;;;;;;;;;;4837571;29;20144;-87
2023/05/29 10:38:22;;;;;;;11.48;3.78;;;;;;;;;;4829196;29;20068;-87
2023/05/29 10:40:51;;;;;;;12.77;3.70;;;;;;;;;;4820899;29;20060;-87
2023/05/29 10:43:33;;;;;;;11.05;3.08;;;;;;;;;;4824712;29;20041;-88
2023/05/29 10:45:59;;;;;;;12.75;3.35;;;;;;;;;;4811011;29;20050;-88
2023/05/29 10:48:30;;;;;;;10.02;3.20;;;;;;;;;;4828322;29;20090;-88
2023/05/29 10:50:58;;;;;;;12.23;4.35;;;;;;;;;;4828979;29;20052;-87
2023/05/29 10:53:28;;;;;;;14.20;3.70;;;;;;;;;;4799101;29;20100;-88
2023/05/29 10:55:54;;;;;;;12.25;3.13;;;;;;;;;;4833273;29;20208;-88
2023/05/29 10:58:27;;;;;;;15.63;3.15;;;;;;;;;;4850880;29;20053;-88
2023/05/29 11:00:54;;;;;;;10.13;2.60;;;;;;;;;;4844365;29;20061;-88
2023/05/29 11:03:21;;;;;;;12.82;3.25;;;;;;;;;;4847120;29;20050;-88
2023/05/29 11:06:03;;;;;;;13.23;3.72;;;;;;;;;;4815710;29;20505;-88
2023/05/29 11:08:37;;;;;;;10.32;3.10;;;;;;;;;;4862775;29;20558;-87
2023/05/29 11:11:06;;;;;;;12.30;3.30;;;;;;;;;;4873184;29;20049;-81
2023/05/29 11:13:34;;;;;;;9.45;3.05;;;;;;;;;;4862327;29;20085;-81
2023/05/29 11:16:00;;;;;;;;;;;;;;;;;;4848329;29;20390;-81
2023/05/29 11:18:54;;;;;;;12.00;3.10;;;;;;;;;;4873686;29;20392;-81
2023/05/29 11:21:39;;;;;;;14.00;2.80;;;;;;;;;;4863366;29;20564;-81
2023/05/29 11:24:06;;;;;;;10.45;2.90;;;;;;;;;;4881719;29;20045;-81
2023/05/29 11:26:32;;;;;;;9.30;3.10;;;;;;;;;;4861313;29;20052;-81
2023/05/29 11:29:11;;;;;;;12.38;3.25;;;;;;;;;;4880566;29;20036;-81
2023/05/29 11:31:50;;;;;;;12.75;3.45;;;;;;;;;;4867785;29;20036;-81
2023/05/29 11:34:27;;;;;;;13.18;3.38;;;;;;;;;;4869842;29;20059;-81
2023/05/29 11:36:53;;;;;;;10.23;3.33;;;;;;;;;;4863414;29;20140;-81
2023/05/29 11:39:57;;;;;;;12.20;3.03;;;;;;;;;;4876278;29;20146;-81
2023/05/29 11:42:22;;;;;;;10.60;3.05;;;;;;;;;;4891491;29;20052;-81
2023/05/29 11:44:53;;;;;;;10.82;3.30;;;;;;;;;;4848316;29;20148;-81
2023/05/29 11:47:19;;;;;;;11.05;3.17;;;;;;;;;;4881043;29;21062;-81
2023/05/29 11:49:45;;;;;;;12.98;3.13;;;;;;;;;;4865836;29;20750;-81
2023/05/29 11:52:13;;;;;;;9.25;3.08;;;;;;;;;;4865957;29;20494;-81
2023/05/29 11:54:46;;;;;;;12.00;3.45;;;;;;;;;;4848380;29;20048;-81
2023/05/29 11:57:17;;;;;;;12.90;3.20;;;;;;;;;;4889314;29;20099;-81
2023/05/29 11:59:43;;;;;;;13.50;3.08;;;;;;;;;;4862246;29;20042;-81
2023/05/29 12:02:09;;;;;;;9.88;2.60;;;;;;;;;;4860644;29;20037;-81
2023/05/29 12:04:35;;;;;;;11.00;3.40;;;;;;;;;;4860718;29;20131;-81
2023/05/29 12:07:25;;;;;;;12.23;3.40;;;;;;;;;;4853042;29;20057;-84
2023/05/29 12:10:46;;;;;;;;;;;;;;;;;;;;;
2023/05/29 12:13:14;;;;;;;8.55;3.15;;;;;;;;;;4831583;29;20101;-81
2023/05/29 12:15:41;;;;;;;10.13;3.30;;;;;;;;;;4813617;29;20184;-81
2023/05/29 12:18:09;;;;;;;11.98;2.78;;;;;;;;;;4853197;29;20143;-81
2023/05/29 12:20:35;;;;;;;11.18;2.83;;;;;;;;;;4858731;29;20123;-81
2023/05/29 12:23:02;;;;;;;12.13;2.63;;;;;;;;;;4856867;29;20441;-80
2023/05/29 12:25:28;;;;;;;10.60;3.10;;;;;;;;;;4876221;29;20141;-80
2023/05/29 12:27:56;;;;;;;9.23;3.30;;;;;;;;;;4853998;29;20462;-80
2023/05/29 12:30:22;;;;;;;9.18;2.97;;;;;;;;;;4890196;29;20074;-81
2023/05/29 12:32:49;;;;;;;13.40;3.40;;;;;;;;;;4856282;29;20048;-80
2023/05/29 12:35:16;;;;;;;11.88;3.40;;;;;;;;;;4863662;29;20127;-80
2023/05/29 12:37:46;;;;;;;10.70;3.22;;;;;;;;;;4854245;29;20052;-80
2023/05/29 12:40:16;;;;;;;9.93;3.10;;;;;;;;;;4859959;29;20048;-80
2023/05/29 12:42:42;;;;;;;11.95;3.03;;;;;;;;;;4856952;29;20053;-80
2023/05/29 12:45:09;;;;;;;10.00;3.33;;;;;;;;;;4871430;29;20037;-83
2023/05/29 12:51:22;;;;;;;12.18;3.38;;;;;;;;;;4861135;29;21917;-85
2023/05/29 12:53:59;;;;;;;8.05;2.80;;;;;;;;;;4862483;29;20128;-85
2023/05/29 12:56:32;;;;;;;11.98;3.42;;;;;;;;;;4860530;29;20052;-85
2023/05/29 12:59:15;;;;;;;11.05;3.03;;;;;;;;;;4861493;29;20047;-85
2023/05/29 13:02:16;;;;;;;10.45;3.25;;;;;;;;;;4864500;29;21963;-84
2023/05/29 13:04:42;;;;;;;8.43;2.80;;;;;;;;;;4847900;29;20056;-84
2023/05/29 13:07:31;;;;;;;;;;;;;;;;;;;;;
2023/05/29 13:10:20;;;;;;;11.32;3.45;;;;;;;;;;4883387;29;20044;-85
2023/05/29 13:13:13;;;;;;;10.15;2.60;;;;;;;;;;4854726;29;20486;-85
2023/05/29 13:16:17;;;;;;;11.30;3.25;;;;;;;;;;4859799;29;20055;-85
2023/05/29 13:18:46;;;;;;;8.57;2.72;;;;;;;;;;4888713;29;20099;-85
2023/05/29 13:27:54;;;;;;;14.38;3.08;;;;;;;;;;4851861;29;20048;-86
2023/05/29 13:30:21;;;;;;;12.52;2.92;;;;;;;;;;4844089;29;20056;-84
2023/05/29 13:32:51;;;;;;;7.88;3.15;;;;;;;;;;4858499;29;20462;-84
2023/05/29 13:35:23;;;;;;;10.88;3.28;;;;;;;;;;4878310;29;20090;-84
2023/05/29 13:38:05;;;;;;;10.43;3.22;;;;;;;;;;4858489;29;20561;-84
2023/05/29 13:40:36;;;;;;;11.18;2.80;;;;;;;;;;4875250;29;20057;-84
2023/05/29 13:43:05;;;;;;;9.35;2.58;;;;;;;;;;4843179;29;20176;-84
2023/05/29 13:49:07;;;;;;;7.43;2.70;;;;;;;;;;4866331;29;20128;-84
2023/05/29 13:51:35;;;;;;;9.63;2.92;;;;;;;;;;4861542;29;20064;-85
2023/05/29 13:54:04;;;;;;;8.88;2.58;;;;;;;;;;4863748;29;20064;-84
2023/05/29 13:56:53;;;;;;;7.43;2.53;;;;;;;;;;4844731;29;20064;-84
2023/05/29 14:03:04;;;;;;;9.40;2.55;;;;;;;;;;4828203;29;20049;-84
2023/05/29 14:06:11;;;;;;;;;;;;;;;;;;;;;
2023/05/29 14:08:56;;;;;;;8.02;2.10;;;;;;;;;;4820519;29;20060;-85
2023/05/29 14:11:45;;;;;;;5.60;2.30;;;;;;;;;;4822371;29;20718;-84
2023/05/29 14:14:43;;;;;;;9.40;2.72;;;;;;;;;;4772389;29;20055;-84
2023/05/29 14:20:34;;;;;;;9.77;2.40;;;;;;;;;;4822764;29;20137;-85
2023/05/29 14:23:04;;;;;;;9.02;2.40;;;;;;;;;;4826487;29;20053;-84
2023/05/29 14:25:40;;;;;;;6.88;2.10;;;;;;;;;;4809237;29;20064;-85
2023/05/29 14:28:35;;;;;;;8.40;2.60;;;;;;;;;;4809853;29;20045;-84
2023/05/29 14:31:07;;;;;;;9.00;2.53;;;;;;;;;;4867635;29;20048;-86
2023/05/29 14:33:37;;;;;;;7.82;2.45;;;;;;;;;;4852082;29;20067;-85
2023/05/29 14:36:15;;;;;;;7.63;2.63;;;;;;;;;;4862496;29;20068;-84
2023/05/29 14:38:46;;;;;;;5.38;2.00;;;;;;;;;;4848410;29;20106;-85
2023/05/29 14:41:13;;;;;;;8.82;2.30;;;;;;;;;;4883495;29;20048;-85
2023/05/29 14:44:13;;;;;;;8.35;2.00;;;;;;;;;;4879022;29;20068;-85
2023/05/29 14:47:01;;;;;;;;;;;;;;;;;;;;;
2023/05/29 14:52:14;;;;;;;6.75;2.40;;;;;;;;;;5355986;23;20064;-83
2023/05/29 14:54:43;;;;;;;6.97;1.90;;;;;;;;;;4862801;29;20090;-84
2023/05/29 14:57:13;;;;;;;9.15;2.35;;;;;;;;;;4865325;29;20494;-84
2023/05/29 14:59:42;;;;;;;5.22;2.13;;;;;;;;;;4864600;29;20044;-83
2023/05/29 15:02:13;;;;;;;7.38;2.33;;;;;;;;;;4861139;29;20072;-83
2023/05/29 15:04:39;;;;;;;11.55;2.70;;;;;;;;;;4856803;29;20451;-83
2023/05/29 15:07:06;;;;;;;10.43;2.80;;;;;;;;;;4859655;29;20115;-83
2023/05/29 15:09:34;;;;;;;8.05;2.78;;;;;;;;;;4856939;29;20043;-84
2023/05/29 15:12:08;;;;;;;5.68;2.33;;;;;;;;;;4871730;29;20531;-83
2023/05/29 15:14:34;;;;;;;11.35;2.28;;;;;;;;;;4851971;29;20398;-84
2023/05/29 15:17:02;;;;;;;6.82;2.13;;;;;;;;;;4862666;29;20143;-83
2023/05/29 15:19:31;;;;;;;7.03;2.28;;;;;;;;;;4859128;29;20044;-83
2023/05/29 15:22:08;;;;;;;6.63;2.05;;;;;;;;;;4859556;29;20036;-83
2023/05/29 15:24:59;;;;;;;6.88;2.33;;;;;;;;;;4877592;29;20193;-83
2023/05/29 15:27:34;;;;;;;7.70;2.40;;;;;;;;;;4840052;29;20052;-84
2023/05/29 15:30:16;;;;;;;7.93;2.28;;;;;;;;;;4832094;29;20393;-83
2023/05/29 15:32:46;;;;;;;7.40;2.28;;;;;;;;;;4838567;29;20055;-83
2023/05/29 15:35:13;;;;;;;7.85;2.50;;;;;;;;;;4847502;29;20056;-84
2023/05/29 15:37:39;;;;;;;5.10;2.13;;;;;;;;;;4859159;29;20100;-83
2023/05/29 15:40:33;;;;;;;10.68;2.08;;;;;;;;;;4844519;29;20041;-83
2023/05/29 15:43:02;;;;;;;6.57;1.85;;;;;;;;;;4861986;29;20662;-83
2023/05/29 15:45:28;;;;;;;7.68;2.17;;;;;;;;;;4860197;29;20202;-85
2023/05/29 15:48:01;;;;;;;4.95;1.85;;;;;;;;;;4844689;29;20044;-83
2023/05/29 15:50:27;;;;;;;5.47;1.75;;;;;;;;;;4858185;29;20048;-83
2023/05/29 15:52:53;;;;;;;5.97;2.03;;;;;;;;;;4836221;29;20076;-83
2023/05/29 15:55:19;;;;;;;6.65;2.13;;;;;;;;;;4849982;29;20131;-84
2023/05/29 15:57:47;;;;;;;3.58;1.63;;;;;;;;;;4833668;29;20040;-84
2023/05/29 16:00:21;;;;;;;6.53;1.88;;;;;;;;;;4841175;29;20471;-89
2023/05/29 16:02:47;;;;;;;5.97;1.83;;;;;;;;;;4844504;29;20136;-89
2023/05/29 16:05:15;;;;;;;5.68;1.95;;;;;;;;;;4857061;29;20071;-89
2023/05/29 16:07:47;;;;;;;6.95;2.00;;;;;;;;;;4842292;29;20574;-88
2023/05/29 16:10:23;;;;;;;9.10;2.97;;;;;;;;;;4867509;29;20768;-89
2023/05/29 16:12:54;;;;;;;8.98;2.58;;;;;;;;;;4859782;29;20505;-91
2023/05/29 16:15:29;;;;;;;8.23;2.45;;;;;;;;;;4854312;29;20056;-89
2023/05/29 16:18:21;;;;;;;7.65;2.03;;;;;;;;;;4869477;29;20053;-88
2023/05/29 16:20:50;;;;;;;6.32;1.60;;;;;;;;;;4859967;29;21049;-84
2023/05/29 16:23:19;;;;;;;7.50;2.40;;;;;;;;;;4834513;29;20077;-84
2023/05/29 16:25:48;;;;;;;5.05;1.73;;;;;;;;;;4849982;29;20100;-83
2023/05/29 16:28:14;;;;;;;7.10;1.98;;;;;;;;;;4837675;29;20083;-84
2023/05/29 16:30:41;;;;;;;7.05;1.80;;;;;;;;;;4842110;29;20072;-84
2023/05/29 16:33:07;;;;;;;5.72;2.05;;;;;;;;;;4843099;29;20593;-84
2023/05/29 16:35:33;;;;;;;7.55;2.00;;;;;;;;;;4844055;29;20041;-84
2023/05/29 16:37:59;;;;;;;5.95;1.92;;;;;;;;;;4860079;29;20112;-83
2023/05/29 16:40:25;;;;;;;8.30;2.42;;;;;;;;;;4868651;29;20100;-84
2023/05/29 16:42:51;;;;;;;8.25;2.30;;;;;;;;;;4843441;29;20080;-84
2023/05/29 16:45:17;;;;;;;10.50;2.13;;;;;;;;;;4867497;29;20033;-84
2023/05/29 16:47:43;;;;;;;8.18;2.55;;;;;;;;;;4850640;29;20056;-84
2023/05/29 16:50:10;;;;;;;9.52;2.47;;;;;;;;;;4845241;29;20040;-83
2023/05/29 16:52:36;;;;;;;10.27;2.40;;;;;;;;;;4839086;29;20403;-82
2023/05/29 16:55:02;;;;;;;6.15;2.25;;;;;;;;;;4848803;29;20490;-84
2023/05/29 16:57:28;;;;;;;9.63;2.50;;;;;;;;;;4854578;29;20371;-83
2023/05/29 16:59:55;;;;;;;6.75;2.55;;;;;;;;;;4862864;29;20044;-85
2023/05/29 17:02:54;;;;;;;;;;;;;;;;;;;;;
2023/05/29 17:05:31;;;;;;;15.38;2.67;;;;;;;;;;4857932;29;20111;-84
2023/05/29 17:08:01;;;;;;;11.95;2.50;;;;;;;;;;4850280;29;20051;-84
2023/05/29 17:10:33;;;;;;;9.82;2.20;;;;;;;;;;4877946;29;20051;-85
2023/05/29 17:12:59;;;;;;;6.60;2.20;;;;;;;;;;4881088;29;20398;-81
2023/05/29 17:15:25;;;;;;;14.40;2.42;;;;;;;;;;4859997;29;20063;-81
2023/05/29 17:17:53;;;;;;;10.73;2.28;;;;;;;;;;4851119;29;20055;-83
2023/05/29 17:20:19;;;;;;;9.57;2.63;;;;;;;;;;4841225;29;20513;-81
2023/05/29 17:22:45;;;;;;;10.98;2.63;;;;;;;;;;4830869;29;20473;-81
2023/05/29 17:25:11;;;;;;;11.43;2.75;;;;;;;;;;4865478;29;20153;-81
2023/05/29 17:27:37;;;;;;;9.55;2.25;;;;;;;;;;4872944;29;20048;-81
2023/05/29 17:30:04;;;;;;;9.40;2.47;;;;;;;;;;4838422;29;20044;-81
2023/05/29 17:32:31;;;;;;;9.60;2.60;;;;;;;;;;4869502;29;20049;-81
2023/05/29 17:34:57;;;;;;;10.65;2.45;;;;;;;;;;4846114;29;20040;-80
2023/05/29 17:37:23;;;;;;;9.15;2.13;;;;;;;;;;4846470;29;20045;-80
2023/05/29 17:39:49;;;;;;;12.20;2.63;;;;;;;;;;4857690;29;20099;-81
2023/05/29 17:42:15;;;;;;;12.52;2.40;;;;;;;;;;4872612;29;20041;-81
2023/05/29 17:44:42;;;;;;;13.77;2.47;;;;;;;;;;4836604;29;20032;-81
2023/05/29 17:47:08;;;;;;;11.18;2.50;;;;;;;;;;4875562;29;20044;-82
2023/05/29 17:49:34;;;;;;;11.00;2.53;;;;;;;;;;4848811;29;20143;-81
2023/05/29 17:52:00;;;;;;;9.00;2.72;;;;;;;;;;4871816;29;20064;-81
2023/05/29 17:54:26;;;;;;;11.35;2.45;;;;;;;;;;4860400;29;20060;-82
2023/05/29 17:56:52;;;;;;;13.00;2.25;;;;;;;;;;4858932;29;20054;-81
2023/05/29 17:59:18;;;;;;;9.65;3.30;;;;;;;;;;4876270;29;20041;-81
2023/05/29 18:01:44;;;;;;;10.68;2.63;;;;;;;;;;4888584;23;20059;-94
2023/05/29 18:04:11;;;;;;;13.00;3.08;;;;;;;;;;4869131;29;20052;-92
2023/05/29 18:06:37;;;;;;;11.10;2.50;;;;;;;;;;4861238;29;20055;-94
2023/05/29 18:09:03;;;;;;;10.82;3.10;;;;;;;;;;4891836;29;20457;-92
2023/05/29 18:11:32;;;;;;;11.80;2.58;;;;;;;;;;4869991;29;20135;-94
2023/05/29 18:13:58;;;;;;;10.18;2.65;;;;;;;;;;4866949;29;20047;-95
2023/05/29 18:16:24;;;;;;;13.40;2.42;;;;;;;;;;4863983;29;20051;-94
2023/05/29 18:18:51;;;;;;;13.48;2.53;;;;;;;;;;4861580;29;20118;-92
2023/05/29 18:21:17;;;;;;;13.02;2.67;;;;;;;;;;4883483;29;20047;-93
2023/05/29 18:23:43;;;;;;;13.20;2.60;;;;;;;;;;4857712;29;20048;-95